Time;durP1;ratioP1;P1;durP2;ratioP2;P2;SDS_P1;SDS_P2;PMS_P1;PMS_P2;Temp;Humidity;BMP_temperature;BMP_pressure;BME280_temperature;BME280_humidity;BME280_pressure;Samples;Min_cycle;Max_cycle;Signal;HPM_P1;HPM_P2
2023/09/25 00:01:48;;;;;;;1.05;0.95;;;14.50;99.90;;;;;;5160232;27;20517;-43
2023/09/25 00:04:14;;;;;;;1.77;1.05;;;14.50;99.90;;;;;;5107811;27;20465;-42
2023/09/25 00:06:40;;;;;;;1.35;1.00;;;14.40;99.90;;;;;;5164617;27;20545;-43
2023/09/25 00:09:06;;;;;;;1.17;1.08;;;14.40;99.90;;;;;;5103925;27;20018;-43
2023/09/25 00:11:31;;;;;;;2.53;1.10;;;14.40;99.90;;;;;;5168040;27;20026;-43
2023/09/25 00:14:06;;;;;;;2.28;1.13;;;14.40;99.90;;;;;;5133758;27;20033;-43
2023/09/25 00:16:32;;;;;;;1.45;1.13;;;14.40;99.90;;;;;;5167599;27;20569;-42
2023/09/25 00:18:57;;;;;;;2.60;1.33;;;14.40;99.90;;;;;;5100361;27;20088;-42
2023/09/25 00:21:23;;;;;;;1.50;1.20;;;14.40;99.90;;;;;;5167053;27;20736;-43
2023/09/25 00:23:48;;;;;;;1.42;1.25;;;14.30;99.90;;;;;;5112166;27;20455;-42
2023/09/25 00:26:14;;;;;;;1.50;1.00;;;14.30;99.90;;;;;;5155512;27;20545;-43
2023/09/25 00:28:40;;;;;;;2.15;1.13;;;14.30;99.90;;;;;;5126020;27;20021;-42
2023/09/25 00:31:06;;;;;;;1.33;1.00;;;14.30;99.90;;;;;;5140271;27;20026;-42
2023/09/25 00:33:31;;;;;;;1.42;1.10;;;14.30;99.90;;;;;;5140096;27;20020;-43
2023/09/25 00:36:17;;;;;;;1.30;1.15;;;14.30;99.90;;;;;;5128173;27;20490;-41
2023/09/25 00:38:43;;;;;;;2.47;1.10;;;14.20;99.90;;;;;;5123012;27;20713;-44
2023/09/25 00:41:09;;;;;;;1.45;1.08;;;14.20;99.90;;;;;;5128168;27;20082;-43
2023/09/25 00:43:34;;;;;;;1.27;1.17;;;14.30;99.90;;;;;;5151926;27;20444;-42
2023/09/25 00:46:00;;;;;;;2.30;1.20;;;14.20;99.90;;;;;;5114667;27;20110;-43
2023/09/25 00:48:28;;;;;;;1.20;1.10;;;14.20;99.90;;;;;;5159886;27;20025;-43
2023/09/25 00:50:56;;;;;;;2.33;0.95;;;14.20;99.90;;;;;;5107319;27;20200;-43
2023/09/25 00:53:27;;;;;;;1.42;1.20;;;14.20;99.90;;;;;;5159343;27;20053;-43
2023/09/25 00:55:56;;;;;;;1.95;1.00;;;14.20;99.90;;;;;;5107401;27;20059;-43
2023/09/25 00:58:26;;;;;;;1.75;1.40;;;14.20;99.90;;;;;;5165274;27;20094;-42
2023/09/25 01:00:53;;;;;;;1.25;1.10;;;14.10;99.90;;;;;;5110218;27;20025;-42
2023/09/25 01:03:19;;;;;;;1.25;0.90;;;14.10;99.90;;;;;;5170368;27;20038;-42
2023/09/25 01:05:44;;;;;;;1.10;1.00;;;14.10;99.90;;;;;;5103208;27;20032;-43
2023/09/25 01:08:10;;;;;;;1.20;1.10;;;14.10;99.90;;;;;;5170427;27;20022;-42
2023/09/25 01:10:40;;;;;;;1.33;1.08;;;14.10;99.90;;;;;;5104964;27;20073;-42
2023/09/25 01:13:06;;;;;;;1.40;1.00;;;14.10;99.90;;;;;;5045435;27;20416;-43
2023/09/25 01:15:32;;;;;;;1.88;1.15;;;14.10;99.90;;;;;;5115925;27;20032;-43
2023/09/25 01:17:58;;;;;;;1.10;1.00;;;14.10;99.90;;;;;;5158929;27;20166;-43
2023/09/25 01:20:26;;;;;;;1.67;1.30;;;14.00;99.90;;;;;;5128067;27;20567;-42
2023/09/25 01:22:52;;;;;;;1.70;1.00;;;14.00;99.90;;;;;;5147454;27;20492;-42
2023/09/25 01:25:19;;;;;;;1.52;1.20;;;14.00;99.90;;;;;;5140595;27;20021;-44
2023/09/25 01:27:47;;;;;;;1.05;0.95;;;14.00;99.90;;;;;;5134038;27;20046;-43
2023/09/25 01:30:13;;;;;;;1.67;0.90;;;14.00;99.90;;;;;;5151840;27;20057;-43
2023/09/25 01:32:44;;;;;;;1.30;1.20;;;14.00;99.90;;;;;;5121601;27;20050;-44
2023/09/25 01:35:17;;;;;;;1.73;1.33;;;14.00;99.90;;;;;;5161308;27;20041;-43
2023/09/25 01:37:43;;;;;;;2.00;1.20;;;14.00;99.90;;;;;;5117842;27;20040;-43
2023/09/25 01:40:14;;;;;;;1.45;1.08;;;14.00;99.90;;;;;;5161806;27;20379;-43
2023/09/25 01:42:40;;;;;;;1.33;1.08;;;13.90;99.90;;;;;;5110781;27;20673;-42
2023/09/25 01:45:08;;;;;;;1.92;1.27;;;13.90;99.90;;;;;;5162227;27;20455;-42
2023/09/25 01:47:34;;;;;;;1.90;1.20;;;13.90;99.90;;;;;;5109946;27;20548;-41
2023/09/25 01:50:00;;;;;;;1.08;0.98;;;13.90;99.90;;;;;;5169205;27;20061;-42
2023/09/25 01:52:28;;;;;;;1.15;1.02;;;13.90;99.90;;;;;;5104580;27;20046;-43
2023/09/25 01:54:54;;;;;;;2.83;1.20;;;13.90;99.90;;;;;;5170285;27;20482;-43
2023/09/25 01:57:21;;;;;;;2.80;1.27;;;13.90;99.90;;;;;;5102625;27;20068;-42
2023/09/25 01:59:47;;;;;;;1.70;1.10;;;13.90;99.90;;;;;;5170698;27;20036;-42
2023/09/25 02:02:12;;;;;;;1.27;1.13;;;13.90;99.90;;;;;;5108740;27;20024;-46
2023/09/25 02:04:38;;;;;;;1.77;0.93;;;13.80;99.90;;;;;;5163883;27;20045;-44
2023/09/25 02:07:03;;;;;;;2.45;1.10;;;13.80;99.90;;;;;;5123133;27;20620;-43
2023/09/25 02:09:29;;;;;;;1.75;1.35;;;13.80;99.90;;;;;;5147979;27;20022;-43
2023/09/25 02:11:57;;;;;;;2.08;1.48;;;13.80;99.90;;;;;;5137534;27;20036;-43
2023/09/25 02:14:23;;;;;;;1.23;1.10;;;13.80;99.90;;;;;;5082665;27;20035;-43
2023/09/25 02:16:48;;;;;;;1.88;1.35;;;13.80;99.90;;;;;;5082682;27;20032;-41
2023/09/25 02:19:14;;;;;;;2.70;1.35;;;13.80;99.90;;;;;;5109303;27;20040;-42
2023/09/25 02:21:39;;;;;;;2.20;1.52;;;13.80;99.90;;;;;;5070699;27;20027;-42
2023/09/25 02:24:05;;;;;;;1.35;1.23;;;13.80;99.90;;;;;;5121601;27;20024;-42
2023/09/25 02:26:31;;;;;;;1.92;1.23;;;13.80;99.90;;;;;;5071257;27;20562;-42
2023/09/25 02:28:59;;;;;;;1.52;1.08;;;13.80;99.90;;;;;;5122647;27;20361;-43
2023/09/25 02:31:25;;;;;;;2.10;1.40;;;13.80;99.90;;;;;;5064213;27;20052;-43
2023/09/25 02:33:50;;;;;;;1.67;1.15;;;13.80;99.90;;;;;;5129095;27;20376;-41
2023/09/25 02:36:16;;;;;;;1.88;1.42;;;13.80;99.90;;;;;;5062507;28;20874;-43
2023/09/25 02:38:44;;;;;;;1.30;1.10;;;13.70;99.90;;;;;;5130119;27;20022;-42
2023/09/25 02:41:10;;;;;;;1.90;1.50;;;13.70;99.90;;;;;;5063290;28;20020;-43
2023/09/25 02:43:35;;;;;;;2.53;1.60;;;13.70;99.90;;;;;;5123316;27;20029;-43
2023/09/25 02:46:01;;;;;;;1.42;1.10;;;13.70;99.90;;;;;;5067976;27;20025;-42
2023/09/25 02:48:26;;;;;;;1.17;1.02;;;13.70;99.90;;;;;;5109407;27;20465;-42
2023/09/25 02:50:52;;;;;;;1.52;1.23;;;13.70;99.90;;;;;;5082583;27;20029;-42
2023/09/25 02:53:17;;;;;;;2.05;1.38;;;13.70;99.90;;;;;;5094546;27;20026;-43
2023/09/25 02:55:50;;;;;;;1.80;1.40;;;13.60;99.90;;;;;;5096893;27;20070;-42
2023/09/25 02:58:16;;;;;;;1.58;1.40;;;13.70;99.90;;;;;;5084691;27;20568;-42
2023/09/25 03:00:41;;;;;;;1.23;1.10;;;13.70;99.90;;;;;;5105579;27;20109;-43
2023/09/25 03:03:16;;;;;;;2.35;1.48;;;13.70;99.90;;;;;;5071795;27;20024;-42
2023/09/25 03:05:41;;;;;;;2.85;1.13;;;13.70;99.90;;;;;;5112694;27;20032;-42
2023/09/25 03:08:07;;;;;;;1.25;1.15;;;13.60;99.90;;;;;;5070381;27;20093;-43
2023/09/25 03:10:37;;;;;;;1.65;1.35;;;13.60;99.90;;;;;;5121658;27;20029;-43
2023/09/25 03:13:11;;;;;;;1.77;1.27;;;13.60;99.90;;;;;;5069063;27;20032;-42
2023/09/25 03:15:40;;;;;;;2.15;1.42;;;13.60;99.90;;;;;;5121873;27;20532;-43
2023/09/25 03:18:11;;;;;;;1.73;1.10;;;13.60;99.90;;;;;;5068326;27;20025;-43
2023/09/25 03:20:39;;;;;;;2.70;1.40;;;13.60;99.90;;;;;;5138983;27;20029;-43
2023/09/25 03:23:05;;;;;;;1.83;1.48;;;13.60;99.90;;;;;;5167388;27;20043;-43
2023/09/25 03:25:37;;;;;;;1.33;1.20;;;13.50;99.90;;;;;;5101552;27;20018;-43
2023/09/25 03:28:03;;;;;;;1.88;1.30;;;13.60;99.90;;;;;;5168019;27;20030;-43
2023/09/25 03:30:29;;;;;;;1.52;1.17;;;13.60;99.90;;;;;;5101872;27;20565;-43
2023/09/25 03:32:55;;;;;;;3.03;1.65;;;13.60;99.90;;;;;;5167567;27;20117;-42
2023/09/25 03:35:21;;;;;;;1.48;1.38;;;13.50;99.90;;;;;;5105508;27;20032;-42
2023/09/25 03:37:47;;;;;;;1.85;1.20;;;13.60;99.90;;;;;;5164316;27;20037;-42
2023/09/25 03:40:13;;;;;;;1.88;1.35;;;13.50;99.90;;;;;;5118376;27;20484;-43
2023/09/25 03:42:41;;;;;;;1.40;1.30;;;13.50;99.90;;;;;;5150196;27;20415;-43
2023/09/25 03:45:08;;;;;;;2.47;1.30;;;13.50;99.90;;;;;;5130606;27;20035;-42
2023/09/25 03:47:35;;;;;;;1.88;1.45;;;13.60;99.90;;;;;;5138821;27;20916;-42
2023/09/25 03:50:03;;;;;;;1.65;1.40;;;13.50;99.90;;;;;;5142522;27;20035;-43
2023/09/25 03:52:28;;;;;;;1.67;1.55;;;13.50;99.90;;;;;;5128926;27;20778;-43
2023/09/25 03:54:54;;;;;;;3.20;1.52;;;13.50;99.90;;;;;;5154735;27;20581;-42
2023/09/25 03:57:20;;;;;;;1.40;1.30;;;13.50;99.90;;;;;;5113967;27;20549;-43
2023/09/25 03:59:45;;;;;;;1.50;1.30;;;13.50;99.90;;;;;;5160533;27;20020;-43
2023/09/25 04:02:11;;;;;;;2.60;1.20;;;13.50;99.90;;;;;;5106977;27;20644;-45
2023/09/25 04:04:46;;;;;;;1.45;1.20;;;13.50;99.90;;;;;;5163287;27;20082;-43
2023/09/25 04:07:20;;;;;;;2.60;1.40;;;13.50;99.90;;;;;;5118090;27;20043;-42
2023/09/25 04:09:47;;;;;;;1.23;1.10;;;13.50;99.90;;;;;;5064935;27;20037;-42
2023/09/25 04:12:19;;;;;;;1.33;1.23;;;13.50;99.90;;;;;;5122735;27;20020;-42
2023/09/25 04:14:44;;;;;;;1.38;1.27;;;13.50;99.90;;;;;;5124558;27;20037;-42
2023/09/25 04:17:10;;;;;;;2.70;1.20;;;13.50;99.90;;;;;;5100697;27;20461;-43
2023/09/25 04:19:36;;;;;;;1.42;1.30;;;13.50;99.90;;;;;;5167728;27;20022;-42
2023/09/25 04:22:06;;;;;;;1.30;1.20;;;13.50;99.90;;;;;;5099605;27;20165;-42
2023/09/25 04:24:41;;;;;;;1.60;1.35;;;13.50;99.90;;;;;;5167698;27;20068;-43
2023/09/25 04:27:09;;;;;;;2.15;1.48;;;13.50;99.90;;;;;;5103401;27;20040;-42
2023/09/25 04:29:35;;;;;;;1.98;1.70;;;13.50;99.90;;;;;;5166199;27;20099;-42
2023/09/25 04:32:03;;;;;;;1.40;1.30;;;13.50;99.90;;;;;;5114505;27;20044;-43
2023/09/25 04:34:29;;;;;;;1.80;1.40;;;13.40;99.90;;;;;;5158523;27;20029;-43
2023/09/25 04:36:54;;;;;;;1.85;1.40;;;13.40;99.90;;;;;;5130292;27;20361;-44
2023/09/25 04:39:20;;;;;;;1.33;1.23;;;13.40;99.90;;;;;;5145034;27;20026;-42
2023/09/25 04:41:47;;;;;;;1.83;1.27;;;13.40;99.90;;;;;;5145643;27;20748;-45
2023/09/25 04:44:12;;;;;;;1.65;1.40;;;13.40;99.90;;;;;;5130956;27;20050;-42
2023/09/25 04:46:38;;;;;;;1.73;1.27;;;13.40;99.90;;;;;;5158106;27;20146;-43
2023/09/25 04:49:07;;;;;;;1.50;1.40;;;13.40;99.90;;;;;;5117025;27;20022;-41
2023/09/25 04:51:33;;;;;;;1.55;1.45;;;13.40;99.90;;;;;;5164187;27;20029;-42
2023/09/25 04:54:00;;;;;;;2.10;1.60;;;13.40;99.90;;;;;;5111375;27;20057;-44
2023/09/25 04:56:29;;;;;;;1.73;1.40;;;13.30;99.90;;;;;;5163590;27;20033;-42
2023/09/25 04:58:55;;;;;;;1.88;1.45;;;13.30;99.90;;;;;;5111127;27;20022;-42
2023/09/25 05:01:21;;;;;;;2.70;1.30;;;13.30;99.90;;;;;;5170406;27;20359;-43
2023/09/25 05:03:47;;;;;;;1.20;1.10;;;13.30;99.90;;;;;;5103811;27;20767;-43
2023/09/25 05:06:13;;;;;;;1.95;1.17;;;13.30;99.90;;;;;;5170547;27;20578;-44
2023/09/25 05:08:39;;;;;;;1.40;1.23;;;13.30;99.90;;;;;;5104231;27;20016;-46
2023/09/25 05:11:07;;;;;;;2.15;1.30;;;13.30;99.90;;;;;;5169301;27;20451;-43
2023/09/25 05:13:34;;;;;;;1.50;1.35;;;13.30;99.90;;;;;;5119109;27;20037;-42
2023/09/25 05:16:02;;;;;;;1.95;1.40;;;13.30;99.90;;;;;;5170894;27;20022;-43
2023/09/25 05:18:29;;;;;;;1.67;1.40;;;13.30;99.90;;;;;;5121900;27;20029;-43
2023/09/25 05:20:57;;;;;;;1.42;1.30;;;13.30;99.90;;;;;;5153751;27;20038;-43
2023/09/25 05:23:23;;;;;;;1.92;1.40;;;13.30;99.90;;;;;;5134275;27;20426;-44
2023/09/25 05:25:48;;;;;;;3.03;1.27;;;13.30;99.90;;;;;;5140229;27;20022;-44
2023/09/25 05:28:14;;;;;;;1.70;1.30;;;13.30;99.90;;;;;;5147070;27;20030;-43
2023/09/25 05:30:40;;;;;;;1.73;1.40;;;13.20;99.90;;;;;;5127454;27;20045;-42
2023/09/25 05:33:05;;;;;;;2.17;1.25;;;13.30;99.90;;;;;;5160230;27;20092;-43
2023/09/25 05:35:31;;;;;;;2.05;1.50;;;13.20;99.90;;;;;;5113679;27;20022;-42
2023/09/25 05:37:56;;;;;;;1.33;1.20;;;13.30;99.90;;;;;;5162130;27;20474;-42
2023/09/25 05:40:25;;;;;;;2.03;1.60;;;13.30;99.90;;;;;;5110067;27;20037;-43
2023/09/25 05:42:51;;;;;;;1.60;1.48;;;13.30;99.90;;;;;;5167735;27;20026;-42
2023/09/25 05:45:20;;;;;;;2.42;1.40;;;13.30;99.90;;;;;;5105768;27;20023;-43
2023/09/25 05:47:45;;;;;;;1.52;1.27;;;13.30;99.90;;;;;;5169118;27;20477;-43
2023/09/25 05:50:11;;;;;;;2.03;1.30;;;13.30;99.90;;;;;;5095283;27;20047;-43
2023/09/25 05:52:38;;;;;;;1.67;1.25;;;13.30;99.90;;;;;;5064502;28;20031;-42
2023/09/25 05:55:05;;;;;;;2.63;1.40;;;13.30;99.90;;;;;;5080387;27;20735;-42
2023/09/25 05:57:31;;;;;;;1.88;1.35;;;13.30;99.90;;;;;;5167206;27;20066;-43
2023/09/25 05:59:57;;;;;;;3.05;1.70;;;13.30;99.90;;;;;;5115059;27;20021;-42
2023/09/25 06:02:27;;;;;;;2.95;1.60;;;13.40;99.90;;;;;;5153657;27;20030;-42
2023/09/25 06:04:54;;;;;;;1.63;1.42;;;13.40;99.90;;;;;;5127296;27;20032;-43
2023/09/25 06:07:26;;;;;;;1.70;1.40;;;13.40;99.90;;;;;;5144705;27;20076;-43
2023/09/25 06:09:52;;;;;;;2.97;1.23;;;13.50;99.90;;;;;;5135178;27;20459;-43
2023/09/25 06:12:18;;;;;;;2.00;1.20;;;13.50;99.90;;;;;;5136275;27;20564;-43
2023/09/25 06:14:44;;;;;;;2.15;1.30;;;13.50;99.90;;;;;;5131685;27;20822;-43
2023/09/25 06:17:10;;;;;;;1.65;1.40;;;13.50;99.90;;;;;;5108307;27;20109;-44
2023/09/25 06:19:36;;;;;;;1.95;1.40;;;13.60;99.90;;;;;;5070706;27;20096;-43
2023/09/25 06:22:04;;;;;;;3.58;1.40;;;13.60;99.90;;;;;;5097157;27;20033;-44
2023/09/25 06:24:31;;;;;;;3.75;1.50;;;13.60;99.90;;;;;;5161420;27;20378;-43
2023/09/25 06:26:56;;;;;;;2.22;1.40;;;13.60;99.90;;;;;;5079177;27;20123;-44
2023/09/25 06:29:22;;;;;;;1.67;1.38;;;13.60;99.90;;;;;;5063037;27;20103;-43
2023/09/25 06:31:53;;;;;;;4.13;1.35;;;13.70;99.90;;;;;;5126984;27;20079;-43
2023/09/25 06:34:19;;;;;;;2.70;1.50;;;13.70;99.90;;;;;;5062929;28;20183;-43
2023/09/25 06:36:45;;;;;;;3.13;1.70;;;13.70;99.90;;;;;;5127810;27;20047;-42
2023/09/25 06:39:10;;;;;;;2.00;1.70;;;13.80;99.90;;;;;;5062438;28;20471;-43
2023/09/25 06:41:37;;;;;;;1.80;1.40;;;13.80;99.90;;;;;;5127005;27;20073;-43
2023/09/25 06:44:04;;;;;;;2.17;1.42;;;13.90;99.90;;;;;;5062645;27;20524;-43
2023/09/25 06:46:31;;;;;;;1.55;1.20;;;13.90;99.90;;;;;;5114527;27;20754;-43
2023/09/25 06:48:57;;;;;;;2.70;1.55;;;14.00;99.90;;;;;;5075226;27;20027;-44
2023/09/25 06:51:23;;;;;;;2.22;1.20;;;14.00;99.90;;;;;;5100642;27;20467;-42
2023/09/25 06:53:49;;;;;;;2.28;1.50;;;14.10;99.90;;;;;;5088202;27;20036;-42
2023/09/25 06:56:15;;;;;;;1.63;1.40;;;14.10;99.90;;;;;;5085778;27;20015;-42
2023/09/25 06:58:42;;;;;;;1.50;1.40;;;14.20;99.90;;;;;;5102680;27;20021;-42
2023/09/25 07:01:07;;;;;;;1.40;1.30;;;14.20;99.90;;;;;;5074870;27;20479;-42
2023/09/25 07:03:33;;;;;;;1.42;1.33;;;14.30;99.90;;;;;;5115378;27;20047;-43
2023/09/25 07:05:58;;;;;;;1.95;1.20;;;14.30;99.90;;;;;;5070150;27;20527;-42
2023/09/25 07:08:25;;;;;;;1.70;1.30;;;14.40;99.90;;;;;;5122466;27;20031;-42
2023/09/25 07:10:51;;;;;;;2.88;1.50;;;14.40;99.90;;;;;;5068344;27;20593;-42
2023/09/25 07:13:19;;;;;;;1.55;1.25;;;14.50;99.90;;;;;;5122637;27;20056;-43
2023/09/25 07:15:44;;;;;;;1.88;1.35;;;14.50;99.90;;;;;;5158755;27;20430;-42
2023/09/25 07:18:11;;;;;;;1.42;1.23;;;14.60;99.90;;;;;;5100676;27;20062;-42
2023/09/25 07:20:45;;;;;;;2.08;1.20;;;14.70;99.90;;;;;;5168200;27;20021;-43
2023/09/25 07:23:11;;;;;;;1.73;1.20;;;14.70;99.90;;;;;;5101520;27;20069;-42
2023/09/25 07:25:36;;;;;;;1.48;1.35;;;14.70;99.90;;;;;;5140287;27;20329;-43
2023/09/25 07:28:02;;;;;;;1.88;1.35;;;14.80;99.90;;;;;;5119836;27;20050;-42
2023/09/25 07:30:28;;;;;;;1.98;1.30;;;14.80;99.90;;;;;;5070260;27;20023;-43
2023/09/25 07:32:54;;;;;;;1.58;1.45;;;14.90;99.90;;;;;;5106917;27;20073;-43
2023/09/25 07:35:19;;;;;;;2.63;1.20;;;14.90;99.90;;;;;;5083099;27;20064;-42
2023/09/25 07:37:47;;;;;;;1.70;1.40;;;14.90;99.90;;;;;;5093688;27;20025;-42
2023/09/25 07:40:14;;;;;;;1.88;1.42;;;15.00;99.90;;;;;;5094467;27;20449;-42
2023/09/25 07:42:40;;;;;;;1.40;1.30;;;15.00;99.90;;;;;;5081715;27;20028;-42
2023/09/25 07:45:12;;;;;;;1.50;1.38;;;15.00;99.90;;;;;;5106391;27;20032;-43
2023/09/25 07:47:40;;;;;;;2.00;1.15;;;15.10;99.90;;;;;;5072431;27;20040;-42
2023/09/25 07:50:10;;;;;;;1.73;1.35;;;15.10;99.90;;;;;;5113979;27;20024;-43
2023/09/25 07:52:37;;;;;;;2.45;1.25;;;15.10;99.90;;;;;;5067559;27;20026;-43
2023/09/25 07:55:06;;;;;;;2.25;1.27;;;15.20;99.90;;;;;;5120289;27;20506;-43
2023/09/25 07:57:34;;;;;;;1.42;1.27;;;15.20;99.90;;;;;;5069360;27;20039;-43
2023/09/25 08:00:09;;;;;;;1.50;1.20;;;15.30;99.90;;;;;;5119951;27;20050;-44
2023/09/25 08:02:39;;;;;;;2.10;1.38;;;15.30;99.90;;;;;;5067672;27;20071;-43
2023/09/25 08:05:06;;;;;;;1.17;1.08;;;15.40;99.90;;;;;;5116838;27;20044;-44
2023/09/25 08:07:32;;;;;;;2.03;1.30;;;15.60;99.90;;;;;;5061181;27;20432;-43
2023/09/25 08:09:59;;;;;;;2.13;1.58;;;15.70;99.90;;;;;;5127780;27;20101;-43
2023/09/25 08:12:25;;;;;;;1.98;1.00;;;15.80;99.90;;;;;;5062225;28;20103;-43
2023/09/25 08:15:00;;;;;;;2.13;1.20;;;15.90;99.90;;;;;;5077146;27;20501;-43
2023/09/25 08:17:25;;;;;;;1.00;0.90;;;16.00;99.90;;;;;;5061863;28;20478;-43
2023/09/25 08:19:52;;;;;;;1.40;1.23;;;16.10;99.90;;;;;;5093454;27;20563;-43
2023/09/25 08:22:18;;;;;;;1.40;1.20;;;16.10;99.90;;;;;;5163944;27;20030;-43
2023/09/25 08:24:47;;;;;;;2.40;1.30;;;16.20;99.90;;;;;;5116485;27;20776;-44
2023/09/25 08:27:16;;;;;;;1.42;1.10;;;16.30;99.90;;;;;;5152131;27;20098;-42
2023/09/25 08:29:41;;;;;;;2.08;1.40;;;16.30;99.90;;;;;;5125945;27;20024;-43
2023/09/25 08:32:07;;;;;;;3.95;1.23;;;16.40;99.90;;;;;;5140644;27;20085;-42
2023/09/25 08:34:34;;;;;;;2.75;1.40;;;16.50;99.90;;;;;;5140114;27;20029;-43
2023/09/25 08:37:02;;;;;;;2.00;1.27;;;16.50;99.90;;;;;;5127966;27;20030;-42
2023/09/25 08:39:28;;;;;;;1.92;1.27;;;16.60;99.90;;;;;;5151281;27;20020;-43
2023/09/25 08:41:54;;;;;;;1.70;1.60;;;16.70;99.90;;;;;;5115817;27;20042;-43
2023/09/25 08:44:20;;;;;;;2.30;1.58;;;16.80;99.90;;;;;;5159476;27;20013;-42
2023/09/25 08:46:49;;;;;;;1.70;1.60;;;16.80;99.90;;;;;;5107802;27;20473;-42
2023/09/25 08:49:15;;;;;;;2.83;1.65;;;16.80;99.90;;;;;;5158271;27;20095;-43
2023/09/25 08:51:41;;;;;;;2.58;1.45;;;16.90;99.90;;;;;;5107503;27;20090;-42
2023/09/25 08:54:07;;;;;;;1.30;1.20;;;17.00;99.90;;;;;;5166218;27;20038;-43
2023/09/25 08:56:33;;;;;;;1.67;1.10;;;17.10;99.90;;;;;;5098877;27;20022;-44
2023/09/25 08:59:06;;;;;;;1.80;1.52;;;17.20;99.90;;;;;;5166633;27;20027;-44
2023/09/25 09:01:32;;;;;;;2.08;1.50;;;17.30;99.90;;;;;;5100703;27;20024;-43
2023/09/25 09:03:59;;;;;;;2.13;1.45;;;17.40;99.90;;;;;;5165654;27;20057;-43
2023/09/25 09:06:24;;;;;;;2.20;1.40;;;17.40;99.90;;;;;;5103406;27;20100;-43
2023/09/25 09:08:53;;;;;;;1.83;1.52;;;17.50;99.90;;;;;;5163528;27;20026;-42
2023/09/25 09:11:21;;;;;;;2.47;1.75;;;17.50;99.90;;;;;;5114276;27;20020;-43
2023/09/25 09:13:48;;;;;;;1.63;1.30;;;17.60;99.90;;;;;;5122306;27;20144;-43
2023/09/25 09:16:20;;;;;;;2.38;1.65;;;17.70;99.90;;;;;;5125412;27;20039;-43
2023/09/25 09:18:46;;;;;;;1.95;1.45;;;17.80;99.90;;;;;;5144559;27;20026;-43
2023/09/25 09:21:26;;;;;;;2.50;1.60;;;17.80;99.90;;;;;;5138959;27;20918;-43
2023/09/25 09:23:57;;;;;;;2.05;1.50;;;17.90;99.90;;;;;;5146664;27;20456;-43
2023/09/25 09:26:23;;;;;;;1.63;1.50;;;18.00;99.90;;;;;;5138765;27;20036;-43
2023/09/25 09:28:49;;;;;;;2.63;1.65;;;18.00;99.90;;;;;;5135991;27;20026;-43
2023/09/25 09:31:17;;;;;;;1.65;1.27;;;18.10;99.90;;;;;;5150780;27;20575;-43
2023/09/25 09:33:43;;;;;;;2.33;1.55;;;18.10;99.90;;;;;;5124384;27;20095;-43
2023/09/25 09:36:13;;;;;;;3.70;1.55;;;18.20;99.90;;;;;;5162526;27;20014;-43
2023/09/25 09:38:40;;;;;;;1.30;1.20;;;18.30;99.90;;;;;;5102262;27;20053;-43
2023/09/25 09:41:09;;;;;;;2.35;1.58;;;18.30;99.90;;;;;;5161992;27;20511;-42
2023/09/25 09:43:36;;;;;;;3.03;1.45;;;18.30;99.90;;;;;;5111162;27;20044;-42
2023/09/25 09:46:02;;;;;;;2.75;1.52;;;18.40;99.90;;;;;;5163549;27;20122;-46
2023/09/25 09:48:31;;;;;;;2.05;1.52;;;18.40;99.90;;;;;;5109713;27;20018;-42
2023/09/25 09:51:03;;;;;;;1.50;1.27;;;18.50;99.90;;;;;;5169925;27;20026;-43
2023/09/25 09:53:33;;;;;;;2.25;1.40;;;18.50;99.90;;;;;;5103520;27;20046;-42
2023/09/25 09:55:59;;;;;;;1.70;1.50;;;18.60;99.90;;;;;;5169932;27;20034;-43
2023/09/25 09:58:27;;;;;;;2.53;1.73;;;18.60;99.90;;;;;;5103181;27;20024;-43
2023/09/25 10:00:57;;;;;;;2.50;2.15;;;18.70;99.90;;;;;;5086997;27;20036;-43
2023/09/25 10:03:28;;;;;;;2.35;2.00;;;18.70;99.90;;;;;;5089017;27;20543;-43
2023/09/25 10:05:55;;;;;;;1.73;1.50;;;18.80;99.90;;;;;;5043084;28;20086;-43
2023/09/25 10:08:21;;;;;;;1.75;1.50;;;18.80;99.90;;;;;;5114693;27;20030;-43
2023/09/25 10:10:51;;;;;;;1.63;1.23;;;18.80;99.90;;;;;;5073020;27;20119;-43
2023/09/25 10:13:29;;;;;;;1.40;1.30;;;18.80;99.90;;;;;;5090894;27;20480;-43
2023/09/25 10:16:01;;;;;;;2.65;1.55;;;18.90;99.90;;;;;;5066125;27;20016;-43
2023/09/25 10:18:28;;;;;;;3.42;1.45;;;19.00;99.90;;;;;;5109518;27;20065;-42
2023/09/25 10:21:08;;;;;;;2.40;1.45;;;19.00;99.90;;;;;;5081643;27;20080;-43
2023/09/25 10:23:34;;;;;;;1.50;1.35;;;19.00;99.90;;;;;;5107297;27;20106;-42
2023/09/25 10:26:02;;;;;;;2.58;1.30;;;19.10;99.90;;;;;;5084843;27;20033;-44
2023/09/25 10:28:37;;;;;;;1.92;1.40;;;19.10;99.90;;;;;;5094517;27;20109;-43
2023/09/25 10:31:05;;;;;;;1.90;1.50;;;19.20;99.90;;;;;;5089761;27;20021;-43
2023/09/25 10:33:37;;;;;;;1.73;1.63;;;19.20;99.90;;;;;;5089501;27;20037;-43
2023/09/25 10:36:04;;;;;;;1.85;1.55;;;19.20;99.90;;;;;;5097449;27;20029;-43
2023/09/25 10:38:36;;;;;;;2.20;1.52;;;19.30;99.90;;;;;;5081610;27;20132;-43
2023/09/25 10:41:04;;;;;;;1.88;1.60;;;19.30;99.90;;;;;;5105702;27;20379;-43
2023/09/25 10:43:31;;;;;;;1.77;1.38;;;19.40;99.90;;;;;;5073536;27;20023;-43
2023/09/25 10:45:57;;;;;;;1.38;1.13;;;19.40;99.90;;;;;;5116711;27;20016;-43
2023/09/25 10:48:26;;;;;;;2.08;1.70;;;19.50;99.90;;;;;;5069194;27;20019;-44
2023/09/25 10:50:55;;;;;;;2.15;1.67;;;19.50;99.90;;;;;;5122372;27;20386;-43
2023/09/25 10:53:21;;;;;;;2.45;1.58;;;19.60;99.90;;;;;;5070128;27;20028;-43
2023/09/25 10:55:53;;;;;;;3.28;1.60;;;19.60;99.90;;;;;;5121737;27;20029;-43
2023/09/25 10:58:21;;;;;;;2.30;1.33;;;19.60;99.90;;;;;;5063716;27;20036;-43
2023/09/25 11:00:49;;;;;;;1.92;1.40;;;19.60;99.90;;;;;;5103466;27;20111;-43
2023/09/25 11:03:15;;;;;;;2.30;1.98;;;19.60;99.90;;;;;;5168056;27;20104;-43
2023/09/25 11:05:41;;;;;;;2.65;2.20;;;19.60;99.90;;;;;;5101829;27;20089;-43
2023/09/25 11:08:14;;;;;;;2.58;1.80;;;19.70;99.90;;;;;;5168163;27;20034;-43
2023/09/25 11:10:40;;;;;;;2.05;1.63;;;19.70;99.90;;;;;;5101188;27;20495;-43
2023/09/25 11:13:06;;;;;;;1.63;1.52;;;19.70;99.90;;;;;;5168108;27;20030;-43
2023/09/25 11:15:39;;;;;;;1.92;1.60;;;19.80;99.90;;;;;;5114481;27;20020;-43
2023/09/25 11:18:08;;;;;;;2.03;1.70;;;19.80;99.90;;;;;;5165603;27;20073;-43
2023/09/25 11:20:33;;;;;;;2.67;1.73;;;19.90;99.90;;;;;;5119924;27;20031;-43
2023/09/25 11:23:09;;;;;;;2.70;1.63;;;19.90;99.90;;;;;;5149502;27;20026;-44
2023/09/25 11:25:49;;;;;;;2.28;1.45;;;19.90;99.90;;;;;;5125890;27;20115;-44
2023/09/25 11:28:17;;;;;;;2.13;1.70;;;19.90;99.90;;;;;;5153600;27;20030;-43
2023/09/25 11:30:46;;;;;;;1.60;1.30;;;20.00;99.90;;;;;;5127318;27;20063;-43
2023/09/25 11:33:14;;;;;;;1.92;1.38;;;20.00;99.90;;;;;;5143672;27;20062;-43
2023/09/25 11:35:40;;;;;;;1.45;1.20;;;20.10;99.90;;;;;;5137818;27;20021;-43
2023/09/25 11:38:09;;;;;;;1.90;1.40;;;20.10;99.90;;;;;;5131251;27;20026;-43
2023/09/25 11:40:36;;;;;;;1.95;1.38;;;20.10;99.90;;;;;;5148362;27;20142;-44
2023/09/25 11:43:01;;;;;;;2.35;1.45;;;20.20;99.90;;;;;;5119206;27;20129;-43
2023/09/25 11:45:27;;;;;;;1.48;1.17;;;20.20;99.90;;;;;;5160204;27;20551;-43
2023/09/25 11:47:53;;;;;;;1.40;1.00;;;20.20;99.90;;;;;;5109168;27;20057;-44
2023/09/25 11:50:19;;;;;;;1.40;1.20;;;20.30;99.90;;;;;;5159576;27;21494;-45
2023/09/25 11:52:46;;;;;;;2.00;1.40;;;20.30;99.90;;;;;;5107498;27;20037;-43
2023/09/25 11:55:14;;;;;;;2.60;1.42;;;20.40;99.90;;;;;;5166627;27;20534;-44
2023/09/25 11:57:44;;;;;;;2.78;1.25;;;20.40;99.90;;;;;;5101987;27;20089;-43
2023/09/25 12:00:11;;;;;;;2.30;1.40;;;20.50;99.90;;;;;;5166749;27;20480;-43
2023/09/25 12:02:46;;;;;;;1.45;1.13;;;20.60;99.90;;;;;;5100574;27;20032;-44
2023/09/25 12:05:16;;;;;;;1.83;1.20;;;20.60;99.90;;;;;;5166829;27;20489;-44
2023/09/25 12:07:42;;;;;;;1.48;1.30;;;20.60;99.90;;;;;;5100200;27;20107;-42
2023/09/25 12:10:16;;;;;;;2.10;1.30;;;20.60;99.90;;;;;;5166978;27;20825;-43
2023/09/25 12:12:44;;;;;;;1.55;1.30;;;20.50;99.90;;;;;;5100080;27;20082;-43
2023/09/25 12:15:13;;;;;;;2.75;1.10;;;20.60;99.90;;;;;;5114705;27;20033;-43
2023/09/25 12:17:39;;;;;;;1.73;1.30;;;20.60;99.90;;;;;;5117841;27;20030;-43
2023/09/25 12:20:12;;;;;;;3.25;1.60;;;20.60;99.90;;;;;;5069164;27;20027;-43
2023/09/25 12:22:40;;;;;;;1.50;1.25;;;20.60;99.90;;;;;;5110445;27;20015;-43
2023/09/25 12:25:09;;;;;;;2.58;1.92;;;20.60;99.90;;;;;;5077906;27;20032;-43
2023/09/25 12:27:35;;;;;;;2.58;1.30;;;20.60;99.90;;;;;;5098595;27;20041;-45
2023/09/25 12:30:03;;;;;;;1.45;1.23;;;20.60;99.90;;;;;;5088392;27;20431;-43
2023/09/25 12:32:29;;;;;;;2.92;1.40;;;20.60;99.90;;;;;;5087851;27;20117;-43
2023/09/25 12:34:57;;;;;;;2.58;1.42;;;20.60;99.90;;;;;;5100418;27;20111;-43
2023/09/25 12:37:25;;;;;;;1.73;1.38;;;20.70;99.90;;;;;;5076122;27;20025;-42
2023/09/25 12:39:51;;;;;;;2.03;1.20;;;20.70;99.90;;;;;;5111305;27;20052;-43
2023/09/25 12:42:17;;;;;;;2.05;1.70;;;20.70;99.90;;;;;;5067499;27;20496;-43
2023/09/25 12:44:42;;;;;;;2.42;1.45;;;20.70;99.90;;;;;;5120086;27;20104;-42
2023/09/25 12:47:08;;;;;;;2.10;1.20;;;20.80;99.90;;;;;;5068106;27;20055;-42
2023/09/25 12:49:33;;;;;;;3.17;1.35;;;20.80;99.90;;;;;;5120087;27;20417;-42